sensor_id;sensor_type;location;lat;lon;timestamp;pressure;altitude;pressure_sealevel;temperature;humidity
75891;BME280;64571;47.512;19.054;2023-08-12T00:02:35;101076.28;;;18.68;63.01
75891;BME280;64571;47.512;19.054;2023-08-12T00:05:38;101080.81;;;18.61;63.15
75891;BME280;64571;47.512;19.054;2023-08-12T00:08:42;101079.16;;;18.60;63.32
75891;BME280;64571;47.512;19.054;2023-08-12T00:11:45;101084.63;;;18.56;63.57
75891;BME280;64571;47.512;19.054;2023-08-12T00:14:47;101081.00;;;18.47;63.93
75891;BME280;64571;47.512;19.054;2023-08-12T00:17:50;101063.59;;;18.54;63.98
75891;BME280;64571;47.512;19.054;2023-08-12T00:20:53;101072.03;;;18.54;64.14
75891;BME280;64571;47.512;19.054;2023-08-12T00:23:55;101075.50;;;18.51;64.28
75891;BME280;64571;47.512;19.054;2023-08-12T00:26:58;101071.75;;;18.46;64.62
75891;BME280;64571;47.512;19.054;2023-08-12T00:30:01;101072.75;;;18.33;66.24
75891;BME280;64571;47.512;19.054;2023-08-12T00:33:03;101060.19;;;18.22;66.36
75891;BME280;64571;47.512;19.054;2023-08-12T00:36:06;101066.16;;;18.12;66.85
75891;BME280;64571;47.512;19.054;2023-08-12T00:39:09;101075.09;;;18.05;66.88
75891;BME280;64571;47.512;19.054;2023-08-12T00:42:11;101074.44;;;18.00;66.89
75891;BME280;64571;47.512;19.054;2023-08-12T00:45:14;101077.41;;;18.03;66.65
75891;BME280;64571;47.512;19.054;2023-08-12T00:48:17;101068.16;;;18.03;66.96
75891;BME280;64571;47.512;19.054;2023-08-12T00:51:20;101056.91;;;17.94;67.23
75891;BME280;64571;47.512;19.054;2023-08-12T00:54:25;101071.47;;;17.96;67.48
75891;BME280;64571;47.512;19.054;2023-08-12T00:57:28;101069.16;;;17.89;67.71
75891;BME280;64571;47.512;19.054;2023-08-12T01:00:31;101072.44;;;17.83;68.02
75891;BME280;64571;47.512;19.054;2023-08-12T01:03:36;101069.12;;;17.72;68.64
75891;BME280;64571;47.512;19.054;2023-08-12T01:06:40;101068.81;;;17.74;69.14
75891;BME280;64571;47.512;19.054;2023-08-12T01:09:44;101077.06;;;17.70;69.63
75891;BME280;64571;47.512;19.054;2023-08-12T01:12:52;101073.09;;;17.62;69.94
75891;BME280;64571;47.512;19.054;2023-08-12T01:16:00;101071.56;;;17.65;69.84
75891;BME280;64571;47.512;19.054;2023-08-12T01:19:06;101076.56;;;17.68;69.93
75891;BME280;64571;47.512;19.054;2023-08-12T01:22:12;101077.37;;;17.60;70.20
75891;BME280;64571;47.512;19.054;2023-08-12T01:25:15;101082.19;;;17.68;70.20
75891;BME280;64571;47.512;19.054;2023-08-12T01:28:17;101080.84;;;17.57;70.65
75891;BME280;64571;47.512;19.054;2023-08-12T01:31:32;101094.41;;;17.63;70.61
75891;BME280;64571;47.512;19.054;2023-08-12T01:34:47;101088.13;;;17.58;71.27
75891;BME280;64571;47.512;19.054;2023-08-12T01:37:53;101089.09;;;17.44;72.47
75891;BME280;64571;47.512;19.054;2023-08-12T01:40:57;101093.06;;;17.43;72.89
75891;BME280;64571;47.512;19.054;2023-08-12T01:44:03;101101.47;;;17.35;73.16
75891;BME280;64571;47.512;19.054;2023-08-12T01:47:05;101098.84;;;17.38;72.69
75891;BME280;64571;47.512;19.054;2023-08-12T01:50:08;101100.12;;;17.32;72.99
75891;BME280;64571;47.512;19.054;2023-08-12T01:53:12;101092.19;;;17.26;72.85
75891;BME280;64571;47.512;19.054;2023-08-12T01:56:14;101089.19;;;17.22;72.85
75891;BME280;64571;47.512;19.054;2023-08-12T01:59:17;101087.41;;;17.26;72.62
75891;BME280;64571;47.512;19.054;2023-08-12T02:02:20;101090.53;;;17.25;72.33
75891;BME280;64571;47.512;19.054;2023-08-12T02:05:22;101085.38;;;17.18;72.48
75891;BME280;64571;47.512;19.054;2023-08-12T02:08:25;101075.16;;;17.22;72.20
75891;BME280;64571;47.512;19.054;2023-08-12T02:11:28;101084.59;;;17.26;72.06
75891;BME280;64571;47.512;19.054;2023-08-12T02:14:30;101083.94;;;17.29;71.77
75891;BME280;64571;47.512;19.054;2023-08-12T02:17:33;101079.97;;;17.30;71.21
75891;BME280;64571;47.512;19.054;2023-08-12T02:20:36;101078.44;;;17.24;70.72
75891;BME280;64571;47.512;19.054;2023-08-12T02:23:39;101087.91;;;17.37;70.56
75891;BME280;64571;47.512;19.054;2023-08-12T02:26:42;101080.00;;;17.39;69.85
75891;BME280;64571;47.512;19.054;2023-08-12T02:29:45;101084.13;;;17.41;69.83
75891;BME280;64571;47.512;19.054;2023-08-12T02:32:48;101080.31;;;17.46;69.42
75891;BME280;64571;47.512;19.054;2023-08-12T02:35:55;101081.03;;;17.52;69.28
75891;BME280;64571;47.512;19.054;2023-08-12T02:38:59;101060.00;;;17.49;68.96
75891;BME280;64571;47.512;19.054;2023-08-12T02:42:02;101062.62;;;17.45;68.86
75891;BME280;64571;47.512;19.054;2023-08-12T02:45:05;101066.94;;;17.43;68.62
75891;BME280;64571;47.512;19.054;2023-08-12T02:48:09;101073.06;;;17.45;68.55
75891;BME280;64571;47.512;19.054;2023-08-12T02:51:13;101074.22;;;17.53;68.59
75891;BME280;64571;47.512;19.054;2023-08-12T02:54:15;101072.72;;;17.55;68.42
75891;BME280;64571;47.512;19.054;2023-08-12T02:57:19;101072.72;;;17.55;68.65
75891;BME280;64571;47.512;19.054;2023-08-12T03:00:22;101074.06;;;17.49;68.85
75891;BME280;64571;47.512;19.054;2023-08-12T03:03:25;101072.22;;;17.44;68.86
75891;BME280;64571;47.512;19.054;2023-08-12T03:06:27;101078.03;;;17.48;68.89
75891;BME280;64571;47.512;19.054;2023-08-12T03:09:30;101074.41;;;17.48;69.23
75891;BME280;64571;47.512;19.054;2023-08-12T03:12:33;101075.22;;;17.48;69.39
75891;BME280;64571;47.512;19.054;2023-08-12T03:15:39;101069.91;;;17.46;69.38
75891;BME280;64571;47.512;19.054;2023-08-12T03:18:42;101075.53;;;17.46;69.25
75891;BME280;64571;47.512;19.054;2023-08-12T03:21:45;101075.53;;;17.46;69.47
75891;BME280;64571;47.512;19.054;2023-08-12T03:24:48;101063.44;;;17.37;69.71
75891;BME280;64571;47.512;19.054;2023-08-12T03:27:51;101077.22;;;17.48;70.00
75891;BME280;64571;47.512;19.054;2023-08-12T03:30:54;101068.41;;;17.40;70.03
75891;BME280;64571;47.512;19.054;2023-08-12T03:33:57;101081.97;;;17.38;70.18
75891;BME280;64571;47.512;19.054;2023-08-12T03:37:02;101089.56;;;17.38;70.20
75891;BME280;64571;47.512;19.054;2023-08-12T03:40:05;101084.78;;;17.38;70.49
75891;BME280;64571;47.512;19.054;2023-08-12T03:43:09;101085.44;;;17.35;71.17
75891;BME280;64571;47.512;19.054;2023-08-12T03:46:12;101077.97;;;17.22;71.94
75891;BME280;64571;47.512;19.054;2023-08-12T03:49:15;101088.03;;;17.23;72.03
75891;BME280;64571;47.512;19.054;2023-08-12T03:52:18;101104.44;;;17.30;73.29
75891;BME280;64571;47.512;19.054;2023-08-12T03:55:21;101100.28;;;17.27;72.64
75891;BME280;64571;47.512;19.054;2023-08-12T03:58:23;101094.66;;;17.27;73.11
75891;BME280;64571;47.512;19.054;2023-08-12T04:01:26;101087.03;;;17.19;74.20
75891;BME280;64571;47.512;19.054;2023-08-12T04:04:30;101098.47;;;17.23;73.94
75891;BME280;64571;47.512;19.054;2023-08-12T04:07:32;101103.88;;;17.19;73.48
75891;BME280;64571;47.512;19.054;2023-08-12T04:10:36;101106.06;;;17.22;73.12
75891;BME280;64571;47.512;19.054;2023-08-12T04:13:38;101105.88;;;17.18;72.73
75891;BME280;64571;47.512;19.054;2023-08-12T04:16:41;101103.69;;;17.15;72.63
75891;BME280;64571;47.512;19.054;2023-08-12T04:19:43;101098.56;;;17.09;73.93
75891;BME280;64571;47.512;19.054;2023-08-12T04:22:47;101111.47;;;17.10;75.12
75891;BME280;64571;47.512;19.054;2023-08-12T04:25:52;101119.03;;;17.01;75.50
75891;BME280;64571;47.512;19.054;2023-08-12T04:28:57;101111.47;;;16.79;75.53
75891;BME280;64571;47.512;19.054;2023-08-12T04:32:00;101106.62;;;16.70;75.09
75891;BME280;64571;47.512;19.054;2023-08-12T04:35:03;101123.53;;;16.79;74.82
75891;BME280;64571;47.512;19.054;2023-08-12T04:38:07;101122.25;;;16.85;74.58
75891;BME280;64571;47.512;19.054;2023-08-12T04:41:11;101127.50;;;16.78;75.06
75891;BME280;64571;47.512;19.054;2023-08-12T04:44:14;101126.50;;;16.74;75.84
75891;BME280;64571;47.512;19.054;2023-08-12T04:47:17;101127.75;;;16.68;77.08
75891;BME280;64571;47.512;19.054;2023-08-12T04:50:20;101125.28;;;16.66;77.34
75891;BME280;64571;47.512;19.054;2023-08-12T04:53:23;101123.28;;;16.67;77.46
75891;BME280;64571;47.512;19.054;2023-08-12T04:56:26;101131.59;;;16.72;77.85
75891;BME280;64571;47.512;19.054;2023-08-12T04:59:31;101128.81;;;16.72;77.83
75891;BME280;64571;47.512;19.054;2023-08-12T05:02:35;101132.28;;;16.78;77.25
75891;BME280;64571;47.512;19.054;2023-08-12T05:05:38;101134.78;;;16.79;76.86
75891;BME280;64571;47.512;19.054;2023-08-12T05:08:41;101132.19;;;16.91;76.25
75891;BME280;64571;47.512;19.054;2023-08-12T05:11:44;101128.22;;;16.92;76.46
75891;BME280;64571;47.512;19.054;2023-08-12T05:14:47;101132.53;;;16.90;76.23
75891;BME280;64571;47.512;19.054;2023-08-12T05:17:49;101125.94;;;16.94;75.69
75891;BME280;64571;47.512;19.054;2023-08-12T05:20:53;101126.28;;;17.02;75.34
75891;BME280;64571;47.512;19.054;2023-08-12T05:23:56;101135.47;;;17.16;74.63
75891;BME280;64571;47.512;19.054;2023-08-12T05:26:59;101136.13;;;17.21;73.89
75891;BME280;64571;47.512;19.054;2023-08-12T05:30:01;101137.78;;;17.23;74.02
75891;BME280;64571;47.512;19.054;2023-08-12T05:33:04;101140.25;;;17.24;73.70
75891;BME280;64571;47.512;19.054;2023-08-12T05:36:07;101142.44;;;17.27;73.58
75891;BME280;64571;47.512;19.054;2023-08-12T05:39:11;101133.16;;;17.18;73.24
75891;BME280;64571;47.512;19.054;2023-08-12T05:42:14;101132.19;;;17.31;72.60
75891;BME280;64571;47.512;19.054;2023-08-12T05:45:16;101144.94;;;17.37;72.11
75891;BME280;64571;47.512;19.054;2023-08-12T05:48:19;101137.06;;;17.48;71.51
75891;BME280;64571;47.512;19.054;2023-08-12T05:51:21;101136.91;;;17.62;70.78
75891;BME280;64571;47.512;19.054;2023-08-12T05:54:24;101141.75;;;17.70;70.83
75891;BME280;64571;47.512;19.054;2023-08-12T05:57:27;101138.13;;;17.78;70.91
75891;BME280;64571;47.512;19.054;2023-08-12T06:00:31;101136.66;;;17.81;70.90
75891;BME280;64571;47.512;19.054;2023-08-12T06:03:34;101135.31;;;17.95;70.23
75891;BME280;64571;47.512;19.054;2023-08-12T06:06:36;101119.78;;;18.15;69.24
75891;BME280;64571;47.512;19.054;2023-08-12T06:09:39;101120.03;;;18.83;66.62
75891;BME280;64571;47.512;19.054;2023-08-12T06:12:41;101126.03;;;19.20;64.94
75891;BME280;64571;47.512;19.054;2023-08-12T06:15:44;101128.97;;;19.62;63.93
75891;BME280;64571;47.512;19.054;2023-08-12T06:18:46;101127.47;;;19.85;63.89
75891;BME280;64571;47.512;19.054;2023-08-12T06:21:49;101124.44;;;20.11;61.55
75891;BME280;64571;47.512;19.054;2023-08-12T06:24:52;101132.97;;;20.44;60.21
75891;BME280;64571;47.512;19.054;2023-08-12T06:27:55;101119.03;;;20.60;59.25
75891;BME280;64571;47.512;19.054;2023-08-12T06:30:57;101118.25;;;20.72;58.29
75891;BME280;64571;47.512;19.054;2023-08-12T06:34:03;101131.44;;;20.80;58.22
75891;BME280;64571;47.512;19.054;2023-08-12T06:37:06;101126.38;;;21.31;56.27
75891;BME280;64571;47.512;19.054;2023-08-12T06:40:08;101132.16;;;21.35;55.20
75891;BME280;64571;47.512;19.054;2023-08-12T06:43:11;101132.75;;;21.40;54.85
75891;BME280;64571;47.512;19.054;2023-08-12T06:46:14;101112.88;;;21.89;53.96
75891;BME280;64571;47.512;19.054;2023-08-12T06:49:17;101122.13;;;21.62;53.29
75891;BME280;64571;47.512;19.054;2023-08-12T06:52:21;101114.66;;;21.82;52.85
75891;BME280;64571;47.512;19.054;2023-08-12T06:55:23;101116.31;;;22.23;52.36
75891;BME280;64571;47.512;19.054;2023-08-12T06:58:26;101124.53;;;22.40;51.75
75891;BME280;64571;47.512;19.054;2023-08-12T07:01:28;101115.44;;;22.63;52.36
75891;BME280;64571;47.512;19.054;2023-08-12T07:04:31;101114.81;;;22.69;52.36
75891;BME280;64571;47.512;19.054;2023-08-12T07:07:33;101122.41;;;22.81;52.00
75891;BME280;64571;47.512;19.054;2023-08-12T07:10:42;101121.37;;;23.02;50.35
75891;BME280;64571;47.512;19.054;2023-08-12T07:13:44;101111.78;;;22.62;51.03
75891;BME280;64571;47.512;19.054;2023-08-12T07:16:48;101114.84;;;22.85;50.92
75891;BME280;64571;47.512;19.054;2023-08-12T07:19:51;101111.56;;;22.83;50.48
75891;BME280;64571;47.512;19.054;2023-08-12T07:22:54;101119.91;;;23.08;50.18
75891;BME280;64571;47.512;19.054;2023-08-12T07:25:56;101109.56;;;23.31;49.58
75891;BME280;64571;47.512;19.054;2023-08-12T07:28:59;101116.78;;;23.44;49.14
75891;BME280;64571;47.512;19.054;2023-08-12T07:32:02;101105.81;;;23.43;48.76
75891;BME280;64571;47.512;19.054;2023-08-12T07:35:05;101117.03;;;23.71;48.44
75891;BME280;64571;47.512;19.054;2023-08-12T07:38:08;101115.81;;;23.88;47.83
75891;BME280;64571;47.512;19.054;2023-08-12T07:41:10;101118.78;;;23.60;48.42
75891;BME280;64571;47.512;19.054;2023-08-12T07:44:13;101118.84;;;23.63;48.24
75891;BME280;64571;47.512;19.054;2023-08-12T07:47:16;101120.97;;;23.82;47.79
75891;BME280;64571;47.512;19.054;2023-08-12T07:50:18;101108.41;;;23.83;47.59
75891;BME280;64571;47.512;19.054;2023-08-12T07:53:21;101113.53;;;23.62;47.52
75891;BME280;64571;47.512;19.054;2023-08-12T07:56:23;101114.44;;;23.82;47.40
75891;BME280;64571;47.512;19.054;2023-08-12T07:59:26;101104.37;;;23.84;46.75
75891;BME280;64571;47.512;19.054;2023-08-12T08:02:29;101103.34;;;23.92;45.72
75891;BME280;64571;47.512;19.054;2023-08-12T08:05:32;101111.13;;;24.15;45.10
75891;BME280;64571;47.512;19.054;2023-08-12T08:09:34;101111.69;;;24.82;43.24
75891;BME280;64571;47.512;19.054;2023-08-12T08:12:37;101111.69;;;24.82;43.24
75891;BME280;64571;47.512;19.054;2023-08-12T08:15:39;101103.78;;;24.33;43.85
75891;BME280;64571;47.512;19.054;2023-08-12T08:18:43;101105.91;;;24.56;43.35
75891;BME280;64571;47.512;19.054;2023-08-12T08:21:45;101103.38;;;24.50;43.11
75891;BME280;64571;47.512;19.054;2023-08-12T08:24:48;101102.25;;;24.78;42.42
75891;BME280;64571;47.512;19.054;2023-08-12T08:27:50;101104.53;;;24.49;42.99
75891;BME280;64571;47.512;19.054;2023-08-12T08:30:53;101106.78;;;24.60;42.60
75891;BME280;64571;47.512;19.054;2023-08-12T08:33:56;101102.69;;;24.80;41.73
75891;BME280;64571;47.512;19.054;2023-08-12T08:36:59;101096.88;;;24.73;42.07
75891;BME280;64571;47.512;19.054;2023-08-12T08:40:01;101106.06;;;24.86;41.55
